sensor_id;sensor_type;location;lat;lon;timestamp;temperature;humidity
8099;DHT22;4092;47.876;9.372;2022-10-30T00:01:01;12.60;99.90
8099;DHT22;4092;47.876;9.372;2022-10-30T00:03:28;12.60;99.90
8099;DHT22;4092;47.876;9.372;2022-10-30T00:05:55;12.60;99.90
8099;DHT22;4092;47.876;9.372;2022-10-30T00:08:23;12.60;99.90
8099;DHT22;4092;47.876;9.372;2022-10-30T00:10:51;12.60;99.90
8099;DHT22;4092;47.876;9.372;2022-10-30T00:13:19;12.70;99.90
8099;DHT22;4092;47.876;9.372;2022-10-30T00:15:48;12.70;99.90
8099;DHT22;4092;47.876;9.372;2022-10-30T00:18:17;12.90;99.90
8099;DHT22;4092;47.876;9.372;2022-10-30T00:20:45;12.90;99.90
8099;DHT22;4092;47.876;9.372;2022-10-30T00:23:12;12.90;99.90
8099;DHT22;4092;47.876;9.372;2022-10-30T00:25:39;12.90;99.90
8099;DHT22;4092;47.876;9.372;2022-10-30T00:28:06;12.90;99.90
8099;DHT22;4092;47.876;9.372;2022-10-30T00:30:34;13.00;99.90
8099;DHT22;4092;47.876;9.372;2022-10-30T00:33:01;13.00;99.90
8099;DHT22;4092;47.876;9.372;2022-10-30T00:35:30;13.00;99.90
8099;DHT22;4092;47.876;9.372;2022-10-30T00:37:58;13.00;99.90
8099;DHT22;4092;47.876;9.372;2022-10-30T00:40:25;13.00;99.90
8099;DHT22;4092;47.876;9.372;2022-10-30T00:42:52;13.10;99.90
8099;DHT22;4092;47.876;9.372;2022-10-30T00:45:19;13.10;99.90
8099;DHT22;4092;47.876;9.372;2022-10-30T00:47:50;13.10;99.90
8099;DHT22;4092;47.876;9.372;2022-10-30T00:50:20;13.10;99.90
8099;DHT22;4092;47.876;9.372;2022-10-30T00:52:55;13.00;99.90
8099;DHT22;4092;47.876;9.372;2022-10-30T00:55:26;13.10;99.90
8099;DHT22;4092;47.876;9.372;2022-10-30T00:57:55;13.00;99.90
8099;DHT22;4092;47.876;9.372;2022-10-30T01:00:23;12.90;99.90
8099;DHT22;4092;47.876;9.372;2022-10-30T01:02:52;12.80;99.90
8099;DHT22;4092;47.876;9.372;2022-10-30T01:05:21;12.90;99.90
8099;DHT22;4092;47.876;9.372;2022-10-30T01:07:51;12.90;99.90
8099;DHT22;4092;47.876;9.372;2022-10-30T01:10:18;12.80;99.90
8099;DHT22;4092;47.876;9.372;2022-10-30T01:12:46;12.80;99.90
8099;DHT22;4092;47.876;9.372;2022-10-30T01:15:16;12.80;99.90
8099;DHT22;4092;47.876;9.372;2022-10-30T01:17:56;12.70;99.90
8099;DHT22;4092;47.876;9.372;2022-10-30T01:20:46;12.70;99.90
8099;DHT22;4092;47.876;9.372;2022-10-30T01:23:31;12.80;99.90
8099;DHT22;4092;47.876;9.372;2022-10-30T01:26:10;12.80;99.90
8099;DHT22;4092;47.876;9.372;2022-10-30T01:28:53;12.90;99.90
8099;DHT22;4092;47.876;9.372;2022-10-30T01:31:33;12.90;99.90
8099;DHT22;4092;47.876;9.372;2022-10-30T01:34:16;12.80;99.90
8099;DHT22;4092;47.876;9.372;2022-10-30T01:36:48;12.70;99.90
8099;DHT22;4092;47.876;9.372;2022-10-30T01:39:20;12.70;99.90
8099;DHT22;4092;47.876;9.372;2022-10-30T01:41:48;12.70;99.90
8099;DHT22;4092;47.876;9.372;2022-10-30T01:44:18;12.80;99.90
8099;DHT22;4092;47.876;9.372;2022-10-30T01:46:59;12.70;99.90
8099;DHT22;4092;47.876;9.372;2022-10-30T01:49:46;12.70;99.90
8099;DHT22;4092;47.876;9.372;2022-10-30T01:52:21;12.70;99.90
8099;DHT22;4092;47.876;9.372;2022-10-30T01:55:00;12.80;99.90
8099;DHT22;4092;47.876;9.372;2022-10-30T01:57:34;12.90;99.90
8099;DHT22;4092;47.876;9.372;2022-10-30T02:00:05;12.90;99.90
8099;DHT22;4092;47.876;9.372;2022-10-30T02:02:33;12.90;99.90
8099;DHT22;4092;47.876;9.372;2022-10-30T02:05:00;12.90;99.90
8099;DHT22;4092;47.876;9.372;2022-10-30T02:07:27;12.90;99.90
8099;DHT22;4092;47.876;9.372;2022-10-30T02:09:56;12.90;99.90
8099;DHT22;4092;47.876;9.372;2022-10-30T02:12:23;12.90;99.90
8099;DHT22;4092;47.876;9.372;2022-10-30T02:14:53;12.90;99.90
8099;DHT22;4092;47.876;9.372;2022-10-30T02:17:21;13.00;99.90
8099;DHT22;4092;47.876;9.372;2022-10-30T02:19:48;13.00;99.90
8099;DHT22;4092;47.876;9.372;2022-10-30T02:22:17;13.00;99.90
8099;DHT22;4092;47.876;9.372;2022-10-30T02:24:44;13.00;99.90
8099;DHT22;4092;47.876;9.372;2022-10-30T02:27:11;13.10;99.90
8099;DHT22;4092;47.876;9.372;2022-10-30T02:29:38;13.10;99.90
8099;DHT22;4092;47.876;9.372;2022-10-30T02:32:05;13.10;99.90
8099;DHT22;4092;47.876;9.372;2022-10-30T02:34:32;13.10;99.90
8099;DHT22;4092;47.876;9.372;2022-10-30T02:36:59;13.10;99.90
8099;DHT22;4092;47.876;9.372;2022-10-30T02:39:27;13.40;99.90
8099;DHT22;4092;47.876;9.372;2022-10-30T02:41:54;13.40;99.90
8099;DHT22;4092;47.876;9.372;2022-10-30T02:44:21;13.40;99.90
8099;DHT22;4092;47.876;9.372;2022-10-30T02:46:48;13.40;99.90
8099;DHT22;4092;47.876;9.372;2022-10-30T02:49:15;13.50;99.90
8099;DHT22;4092;47.876;9.372;2022-10-30T02:51:42;13.60;99.90
8099;DHT22;4092;47.876;9.372;2022-10-30T02:54:09;13.60;99.90
8099;DHT22;4092;47.876;9.372;2022-10-30T02:56:39;13.50;99.90
8099;DHT22;4092;47.876;9.372;2022-10-30T02:59:06;13.50;99.90
8099;DHT22;4092;47.876;9.372;2022-10-30T03:01:33;13.50;99.90
8099;DHT22;4092;47.876;9.372;2022-10-30T03:04:00;13.60;99.90
8099;DHT22;4092;47.876;9.372;2022-10-30T03:06:27;13.70;99.90
8099;DHT22;4092;47.876;9.372;2022-10-30T03:08:54;13.70;99.90
8099;DHT22;4092;47.876;9.372;2022-10-30T03:11:21;13.70;99.90
8099;DHT22;4092;47.876;9.372;2022-10-30T03:13:50;13.60;99.90
8099;DHT22;4092;47.876;9.372;2022-10-30T03:16:19;13.60;99.90
8099;DHT22;4092;47.876;9.372;2022-10-30T03:18:47;13.60;99.90
8099;DHT22;4092;47.876;9.372;2022-10-30T03:21:16;13.40;99.90
8099;DHT22;4092;47.876;9.372;2022-10-30T03:23:44;13.50;99.90
8099;DHT22;4092;47.876;9.372;2022-10-30T03:26:11;13.40;99.90
8099;DHT22;4092;47.876;9.372;2022-10-30T03:28:38;13.40;99.90
8099;DHT22;4092;47.876;9.372;2022-10-30T03:31:08;13.40;99.90
8099;DHT22;4092;47.876;9.372;2022-10-30T03:33:36;13.40;99.90
8099;DHT22;4092;47.876;9.372;2022-10-30T03:36:04;13.50;99.90
8099;DHT22;4092;47.876;9.372;2022-10-30T03:38:31;13.50;99.90
8099;DHT22;4092;47.876;9.372;2022-10-30T03:40:59;13.50;99.90
8099;DHT22;4092;47.876;9.372;2022-10-30T03:43:26;13.40;99.90
8099;DHT22;4092;47.876;9.372;2022-10-30T03:45:54;13.30;99.90
8099;DHT22;4092;47.876;9.372;2022-10-30T03:48:24;13.30;99.90
8099;DHT22;4092;47.876;9.372;2022-10-30T03:50:52;13.30;99.90
8099;DHT22;4092;47.876;9.372;2022-10-30T03:53:19;13.20;99.90
8099;DHT22;4092;47.876;9.372;2022-10-30T03:55:47;13.20;99.90
8099;DHT22;4092;47.876;9.372;2022-10-30T03:58:14;13.00;99.90
8099;DHT22;4092;47.876;9.372;2022-10-30T04:00:41;12.90;99.90
8099;DHT22;4092;47.876;9.372;2022-10-30T04:03:09;12.90;99.90
8099;DHT22;4092;47.876;9.372;2022-10-30T04:05:37;13.00;99.90
8099;DHT22;4092;47.876;9.372;2022-10-30T04:08:08;13.00;99.90
8099;DHT22;4092;47.876;9.372;2022-10-30T04:10:36;13.10;99.90
8099;DHT22;4092;47.876;9.372;2022-10-30T04:13:05;13.00;99.90
8099;DHT22;4092;47.876;9.372;2022-10-30T04:15:33;13.00;99.90
8099;DHT22;4092;47.876;9.372;2022-10-30T04:18:00;13.00;99.90
8099;DHT22;4092;47.876;9.372;2022-10-30T04:20:28;12.90;99.90
8099;DHT22;4092;47.876;9.372;2022-10-30T04:22:58;12.80;99.90
8099;DHT22;4092;47.876;9.372;2022-10-30T04:25:26;12.80;99.90
8099;DHT22;4092;47.876;9.372;2022-10-30T04:27:53;12.80;99.90
8099;DHT22;4092;47.876;9.372;2022-10-30T04:30:21;12.80;99.90
8099;DHT22;4092;47.876;9.372;2022-10-30T04:32:51;12.90;99.90
8099;DHT22;4092;47.876;9.372;2022-10-30T04:35:19;12.90;99.90
8099;DHT22;4092;47.876;9.372;2022-10-30T04:37:51;13.10;99.90
8099;DHT22;4092;47.876;9.372;2022-10-30T04:40:22;13.10;99.90
8099;DHT22;4092;47.876;9.372;2022-10-30T04:42:50;13.20;99.90
8099;DHT22;4092;47.876;9.372;2022-10-30T04:45:17;13.20;99.90
8099;DHT22;4092;47.876;9.372;2022-10-30T04:47:44;13.10;99.90
8099;DHT22;4092;47.876;9.372;2022-10-30T04:50:12;13.00;99.90
8099;DHT22;4092;47.876;9.372;2022-10-30T04:52:40;13.10;99.90
8099;DHT22;4092;47.876;9.372;2022-10-30T04:55:08;13.10;99.90
8099;DHT22;4092;47.876;9.372;2022-10-30T04:57:37;13.10;99.90
8099;DHT22;4092;47.876;9.372;2022-10-30T05:00:05;13.00;99.90
8099;DHT22;4092;47.876;9.372;2022-10-30T05:02:34;13.00;99.90
8099;DHT22;4092;47.876;9.372;2022-10-30T05:05:01;12.90;99.90
8099;DHT22;4092;47.876;9.372;2022-10-30T05:07:28;12.80;99.90
8099;DHT22;4092;47.876;9.372;2022-10-30T05:09:55;12.80;99.90
8099;DHT22;4092;47.876;9.372;2022-10-30T05:12:22;12.70;99.90
8099;DHT22;4092;47.876;9.372;2022-10-30T05:14:51;12.60;99.90
8099;DHT22;4092;47.876;9.372;2022-10-30T05:17:18;12.60;99.90
8099;DHT22;4092;47.876;9.372;2022-10-30T05:19:45;12.60;99.90
8099;DHT22;4092;47.876;9.372;2022-10-30T05:22:12;12.70;99.90
8099;DHT22;4092;47.876;9.372;2022-10-30T05:24:39;12.60;99.90
8099;DHT22;4092;47.876;9.372;2022-10-30T05:27:08;12.60;99.90
8099;DHT22;4092;47.876;9.372;2022-10-30T05:29:37;12.70;99.90
8099;DHT22;4092;47.876;9.372;2022-10-30T05:32:06;12.70;99.90
8099;DHT22;4092;47.876;9.372;2022-10-30T05:34:33;12.60;99.90
8099;DHT22;4092;47.876;9.372;2022-10-30T05:37:00;12.60;99.90
8099;DHT22;4092;47.876;9.372;2022-10-30T05:39:27;12.60;99.90
8099;DHT22;4092;47.876;9.372;2022-10-30T05:41:54;12.50;99.90
8099;DHT22;4092;47.876;9.372;2022-10-30T05:44:21;12.50;99.90
8099;DHT22;4092;47.876;9.372;2022-10-30T05:46:48;12.50;99.90
8099;DHT22;4092;47.876;9.372;2022-10-30T05:49:16;12.50;99.90
8099;DHT22;4092;47.876;9.372;2022-10-30T05:51:43;12.50;99.90
8099;DHT22;4092;47.876;9.372;2022-10-30T05:54:10;12.50;99.90
8099;DHT22;4092;47.876;9.372;2022-10-30T05:56:38;12.50;99.90
8099;DHT22;4092;47.876;9.372;2022-10-30T05:59:08;12.50;99.90
8099;DHT22;4092;47.876;9.372;2022-10-30T06:01:35;12.50;99.90
8099;DHT22;4092;47.876;9.372;2022-10-30T06:04:02;12.50;99.90
8099;DHT22;4092;47.876;9.372;2022-10-30T06:06:31;12.60;99.90
8099;DHT22;4092;47.876;9.372;2022-10-30T06:08:58;12.70;99.90
8099;DHT22;4092;47.876;9.372;2022-10-30T06:11:25;12.70;99.90
8099;DHT22;4092;47.876;9.372;2022-10-30T06:13:53;12.80;99.90
8099;DHT22;4092;47.876;9.372;2022-10-30T06:16:20;12.70;99.90
8099;DHT22;4092;47.876;9.372;2022-10-30T06:18:46;12.60;99.90
8099;DHT22;4092;47.876;9.372;2022-10-30T06:21:17;12.50;99.90
8099;DHT22;4092;47.876;9.372;2022-10-30T06:23:47;12.40;99.90
8099;DHT22;4092;47.876;9.372;2022-10-30T06:26:15;12.30;99.90
8099;DHT22;4092;47.876;9.372;2022-10-30T06:28:42;12.20;99.90
8099;DHT22;4092;47.876;9.372;2022-10-30T06:31:09;12.20;99.90
8099;DHT22;4092;47.876;9.372;2022-10-30T06:33:36;12.20;99.90
8099;DHT22;4092;47.876;9.372;2022-10-30T06:36:03;12.10;99.90
8099;DHT22;4092;47.876;9.372;2022-10-30T06:38:30;12.10;99.90
8099;DHT22;4092;47.876;9.372;2022-10-30T06:40:59;12.10;99.90
8099;DHT22;4092;47.876;9.372;2022-10-30T06:43:26;12.20;99.90
8099;DHT22;4092;47.876;9.372;2022-10-30T06:45:53;12.30;99.90
8099;DHT22;4092;47.876;9.372;2022-10-30T06:48:20;12.40;99.90
8099;DHT22;4092;47.876;9.372;2022-10-30T06:50:52;12.40;99.90
8099;DHT22;4092;47.876;9.372;2022-10-30T06:53:19;12.50;99.90
8099;DHT22;4092;47.876;9.372;2022-10-30T06:55:53;12.50;99.90
8099;DHT22;4092;47.876;9.372;2022-10-30T06:58:22;12.60;99.90
8099;DHT22;4092;47.876;9.372;2022-10-30T07:00:49;12.60;99.90
8099;DHT22;4092;47.876;9.372;2022-10-30T07:03:21;12.60;99.90
8099;DHT22;4092;47.876;9.372;2022-10-30T07:06:06;12.60;99.90
8099;DHT22;4092;47.876;9.372;2022-10-30T07:08:33;12.70;99.90
8099;DHT22;4092;47.876;9.372;2022-10-30T07:11:07;12.70;99.90
8099;DHT22;4092;47.876;9.372;2022-10-30T07:13:35;12.90;99.90
8099;DHT22;4092;47.876;9.372;2022-10-30T07:16:02;13.10;99.90
8099;DHT22;4092;47.876;9.372;2022-10-30T07:18:29;13.20;99.90
8099;DHT22;4092;47.876;9.372;2022-10-30T07:20:56;13.30;99.90
8099;DHT22;4092;47.876;9.372;2022-10-30T07:23:23;13.30;99.90
8099;DHT22;4092;47.876;9.372;2022-10-30T07:25:50;13.40;99.90
8099;DHT22;4092;47.876;9.372;2022-10-30T07:28:17;13.50;99.90
8099;DHT22;4092;47.876;9.372;2022-10-30T07:30:46;13.60;99.90
8099;DHT22;4092;47.876;9.372;2022-10-30T07:33:13;13.60;99.90
8099;DHT22;4092;47.876;9.372;2022-10-30T07:35:42;13.80;99.90
8099;DHT22;4092;47.876;9.372;2022-10-30T07:38:10;13.80;99.90
8099;DHT22;4092;47.876;9.372;2022-10-30T07:40:38;13.90;99.90
8099;DHT22;4092;47.876;9.372;2022-10-30T07:43:06;13.90;99.90
8099;DHT22;4092;47.876;9.372;2022-10-30T07:45:35;14.00;99.90
8099;DHT22;4092;47.876;9.372;2022-10-30T07:48:03;14.10;99.90
8099;DHT22;4092;47.876;9.372;2022-10-30T07:50:31;14.20;99.90
8099;DHT22;4092;47.876;9.372;2022-10-30T07:52:58;14.30;99.90
8099;DHT22;4092;47.876;9.372;2022-10-30T07:55:25;14.50;99.90
8099;DHT22;4092;47.876;9.372;2022-10-30T07:57:52;14.50;99.90
8099;DHT22;4092;47.876;9.372;2022-10-30T08:00:19;14.70;99.90
8099;DHT22;4092;47.876;9.372;2022-10-30T08:02:48;14.80;99.90
8099;DHT22;4092;47.876;9.372;2022-10-30T08:05:17;14.80;99.90
8099;DHT22;4092;47.876;9.372;2022-10-30T08:07:45;14.90;99.90
8099;DHT22;4092;47.876;9.372;2022-10-30T08:10:12;15.10;99.90
8099;DHT22;4092;47.876;9.372;2022-10-30T08:12:40;15.20;99.90
8099;DHT22;4092;47.876;9.372;2022-10-30T08:15:09;15.50;99.90
8099;DHT22;4092;47.876;9.372;2022-10-30T08:17:41;15.70;99.90
8099;DHT22;4092;47.876;9.372;2022-10-30T08:20:09;15.80;99.90
8099;DHT22;4092;47.876;9.372;2022-10-30T08:22:45;15.90;99.90
8099;DHT22;4092;47.876;9.372;2022-10-30T08:25:13;15.90;99.90
8099;DHT22;4092;47.876;9.372;2022-10-30T08:27:53;16.00;99.90
8099;DHT22;4092;47.876;9.372;2022-10-30T08:30:21;16.00;99.90
8099;DHT22;4092;47.876;9.372;2022-10-30T08:32:48;16.10;99.90
8099;DHT22;4092;47.876;9.372;2022-10-30T08:35:15;16.20;99.90
8099;DHT22;4092;47.876;9.372;2022-10-30T08:37:44;16.20;99.90
8099;DHT22;4092;47.876;9.372;2022-10-30T08:40:14;16.30;99.90
8099;DHT22;4092;47.876;9.372;2022-10-30T08:42:56;16.40;99.90
8099;DHT22;4092;47.876;9.372;2022-10-30T08:45:24;16.60;99.90
8099;DHT22;4092;47.876;9.372;2022-10-30T08:47:56;16.80;99.90
8099;DHT22;4092;47.876;9.372;2022-10-30T08:50:23;16.90;99.90
8099;DHT22;4092;47.876;9.372;2022-10-30T08:52:52;17.00;99.90
8099;DHT22;4092;47.876;9.372;2022-10-30T08:55:19;17.10;99.90
8099;DHT22;4092;47.876;9.372;2022-10-30T08:57:46;17.20;99.90
8099;DHT22;4092;47.876;9.372;2022-10-30T09:00:13;17.30;99.90
8099;DHT22;4092;47.876;9.372;2022-10-30T09:02:40;17.40;99.90
8099;DHT22;4092;47.876;9.372;2022-10-30T09:05:08;17.40;99.90
8099;DHT22;4092;47.876;9.372;2022-10-30T09:07:39;17.50;99.90
8099;DHT22;4092;47.876;9.372;2022-10-30T09:10:09;17.60;99.90
8099;DHT22;4092;47.876;9.372;2022-10-30T09:12:36;17.70;99.90
8099;DHT22;4092;47.876;9.372;2022-10-30T09:15:03;17.80;99.90
8099;DHT22;4092;47.876;9.372;2022-10-30T09:17:30;17.90;99.90
8099;DHT22;4092;47.876;9.372;2022-10-30T09:19:58;18.00;99.90
8099;DHT22;4092;47.876;9.372;2022-10-30T09:22:25;18.00;99.90
8099;DHT22;4092;47.876;9.372;2022-10-30T09:24:52;18.10;99.90
8099;DHT22;4092;47.876;9.372;2022-10-30T09:27:20;18.20;99.90
8099;DHT22;4092;47.876;9.372;2022-10-30T09:29:47;18.30;99.90
8099;DHT22;4092;47.876;9.372;2022-10-30T09:32:14;18.30;99.90
8099;DHT22;4092;47.876;9.372;2022-10-30T09:34:41;18.40;99.90
8099;DHT22;4092;47.876;9.372;2022-10-30T09:37:08;18.60;99.90
8099;DHT22;4092;47.876;9.372;2022-10-30T09:39:35;18.70;99.90
8099;DHT22;4092;47.876;9.372;2022-10-30T09:42:21;18.80;99.90
8099;DHT22;4092;47.876;9.372;2022-10-30T09:44:59;18.80;99.90
8099;DHT22;4092;47.876;9.372;2022-10-30T09:47:34;18.90;99.90
8099;DHT22;4092;47.876;9.372;2022-10-30T09:50:12;19.10;99.90
8099;DHT22;4092;47.876;9.372;2022-10-30T09:52:50;19.20;99.90
8099;DHT22;4092;47.876;9.372;2022-10-30T09:55:29;19.40;99.90
8099;DHT22;4092;47.876;9.372;2022-10-30T09:58:10;19.50;99.90
8099;DHT22;4092;47.876;9.372;2022-10-30T10:00:43;19.60;99.90
8099;DHT22;4092;47.876;9.372;2022-10-30T10:03:21;19.80;99.90
8099;DHT22;4092;47.876;9.372;2022-10-30T10:05:55;19.80;99.90
8099;DHT22;4092;47.876;9.372;2022-10-30T10:08:31;20.00;99.90
8099;DHT22;4092;47.876;9.372;2022-10-30T10:11:04;20.10;99.90
8099;DHT22;4092;47.876;9.372;2022-10-30T10:13:40;20.20;99.90
8099;DHT22;4092;47.876;9.372;2022-10-30T10:16:13;20.30;99.90
8099;DHT22;4092;47.876;9.372;2022-10-30T10:18:46;20.40;99.90
8099;DHT22;4092;47.876;9.372;2022-10-30T10:21:20;20.50;99.90
8099;DHT22;4092;47.876;9.372;2022-10-30T10:23:51;20.50;99.90
8099;DHT22;4092;47.876;9.372;2022-10-30T10:26:28;20.60;99.90
8099;DHT22;4092;47.876;9.372;2022-10-30T10:29:16;20.60;99.90
8099;DHT22;4092;47.876;9.372;2022-10-30T10:31:51;20.70;99.90
8099;DHT22;4092;47.876;9.372;2022-10-30T10:34:34;20.80;99.90
8099;DHT22;4092;47.876;9.372;2022-10-30T10:37:13;20.90;99.90
8099;DHT22;4092;47.876;9.372;2022-10-30T10:40:01;21.00;99.90
8099;DHT22;4092;47.876;9.372;2022-10-30T10:42:37;21.10;99.90
8099;DHT22;4092;47.876;9.372;2022-10-30T10:45:17;21.10;99.90
8099;DHT22;4092;47.876;9.372;2022-10-30T10:50:59;21.20;99.90
8099;DHT22;4092;47.876;9.372;2022-10-30T10:53:30;21.30;99.90
8099;DHT22;4092;47.876;9.372;2022-10-30T10:56:00;21.30;99.90
8099;DHT22;4092;47.876;9.372;2022-10-30T10:58:33;21.40;99.90
8099;DHT22;4092;47.876;9.372;2022-10-30T11:01:11;21.40;99.90
8099;DHT22;4092;47.876;9.372;2022-10-30T11:03:47;21.40;99.90
8099;DHT22;4092;47.876;9.372;2022-10-30T11:06:19;21.50;99.90
8099;DHT22;4092;47.876;9.372;2022-10-30T11:08:47;21.60;99.90
8099;DHT22;4092;47.876;9.372;2022-10-30T11:11:14;21.60;99.90
8099;DHT22;4092;47.876;9.372;2022-10-30T11:13:43;21.80;99.90
8099;DHT22;4092;47.876;9.372;2022-10-30T11:16:20;21.80;99.90
8099;DHT22;4092;47.876;9.372;2022-10-30T11:18:54;21.90;99.90
8099;DHT22;4092;47.876;9.372;2022-10-30T11:21:24;22.00;99.90
8099;DHT22;4092;47.876;9.372;2022-10-30T11:23:51;22.10;99.90
8099;DHT22;4092;47.876;9.372;2022-10-30T11:26:31;22.20;99.90
8099;DHT22;4092;47.876;9.372;2022-10-30T11:29:02;22.30;99.90
8099;DHT22;4092;47.876;9.372;2022-10-30T11:31:33;22.50;99.90
8099;DHT22;4092;47.876;9.372;2022-10-30T11:34:27;22.50;99.90
8099;DHT22;4092;47.876;9.372;2022-10-30T11:36:56;22.50;99.90
8099;DHT22;4092;47.876;9.372;2022-10-30T11:39:25;22.60;99.90
8099;DHT22;4092;47.876;9.372;2022-10-30T11:42:02;22.60;99.90
8099;DHT22;4092;47.876;9.372;2022-10-30T11:44:34;22.70;99.90
8099;DHT22;4092;47.876;9.372;2022-10-30T11:47:04;22.80;99.90
8099;DHT22;4092;47.876;9.372;2022-10-30T11:49:40;22.90;99.90
8099;DHT22;4092;47.876;9.372;2022-10-30T11:52:11;22.80;99.90
8099;DHT22;4092;47.876;9.372;2022-10-30T11:54:42;22.90;99.90
8099;DHT22;4092;47.876;9.372;2022-10-30T11:57:22;23.00;99.90
8099;DHT22;4092;47.876;9.372;2022-10-30T11:59:53;23.10;99.90
8099;DHT22;4092;47.876;9.372;2022-10-30T12:02:24;23.10;99.90
8099;DHT22;4092;47.876;9.372;2022-10-30T12:04:53;23.10;99.90
8099;DHT22;4092;47.876;9.372;2022-10-30T12:07:26;23.10;99.90
8099;DHT22;4092;47.876;9.372;2022-10-30T12:09:55;23.00;99.90
8099;DHT22;4092;47.876;9.372;2022-10-30T12:12:27;23.00;99.90
8099;DHT22;4092;47.876;9.372;2022-10-30T12:15:07;22.90;99.90
8099;DHT22;4092;47.876;9.372;2022-10-30T12:17:38;22.90;99.90
8099;DHT22;4092;47.876;9.372;2022-10-30T12:20:11;22.90;99.90
8099;DHT22;4092;47.876;9.372;2022-10-30T12:22:39;22.90;99.90
8099;DHT22;4092;47.876;9.372;2022-10-30T12:25:19;23.00;99.90
8099;DHT22;4092;47.876;9.372;2022-10-30T12:27:48;23.00;99.90
8099;DHT22;4092;47.876;9.372;2022-10-30T12:30:17;23.00;99.90
8099;DHT22;4092;47.876;9.372;2022-10-30T12:32:50;23.10;99.90
8099;DHT22;4092;47.876;9.372;2022-10-30T12:35:29;23.10;99.90
8099;DHT22;4092;47.876;9.372;2022-10-30T12:37:59;23.10;99.90
8099;DHT22;4092;47.876;9.372;2022-10-30T12:40:29;23.20;99.90
8099;DHT22;4092;47.876;9.372;2022-10-30T12:43:02;23.00;99.90
8099;DHT22;4092;47.876;9.372;2022-10-30T12:45:33;23.00;99.90
8099;DHT22;4092;47.876;9.372;2022-10-30T12:48:11;23.00;99.90
8099;DHT22;4092;47.876;9.372;2022-10-30T12:50:43;22.80;99.90
8099;DHT22;4092;47.876;9.372;2022-10-30T12:53:22;22.70;99.90
8099;DHT22;4092;47.876;9.372;2022-10-30T12:55:54;22.60;99.90
8099;DHT22;4092;47.876;9.372;2022-10-30T12:58:27;22.50;99.90
8099;DHT22;4092;47.876;9.372;2022-10-30T13:01:00;22.50;99.90
8099;DHT22;4092;47.876;9.372;2022-10-30T13:03:34;22.50;99.90
8099;DHT22;4092;47.876;9.372;2022-10-30T13:06:08;22.40;99.90
8099;DHT22;4092;47.876;9.372;2022-10-30T13:08:40;22.50;99.90
8099;DHT22;4092;47.876;9.372;2022-10-30T13:11:15;22.60;99.90
8099;DHT22;4092;47.876;9.372;2022-10-30T13:13:46;22.80;99.90
8099;DHT22;4092;47.876;9.372;2022-10-30T13:16:17;23.00;99.90
8099;DHT22;4092;47.876;9.372;2022-10-30T13:18:49;23.30;99.90
8099;DHT22;4092;47.876;9.372;2022-10-30T13:21:21;23.50;99.90
8099;DHT22;4092;47.876;9.372;2022-10-30T13:23:53;23.60;99.90
8099;DHT22;4092;47.876;9.372;2022-10-30T13:26:31;23.60;99.90
8099;DHT22;4092;47.876;9.372;2022-10-30T13:29:06;23.50;99.90
8099;DHT22;4092;47.876;9.372;2022-10-30T13:31:40;23.40;99.90
8099;DHT22;4092;47.876;9.372;2022-10-30T13:34:26;23.40;99.90
8099;DHT22;4092;47.876;9.372;2022-10-30T13:37:01;23.20;99.90
8099;DHT22;4092;47.876;9.372;2022-10-30T13:39:33;23.30;99.90
8099;DHT22;4092;47.876;9.372;2022-10-30T13:42:21;23.30;99.90
8099;DHT22;4092;47.876;9.372;2022-10-30T13:45:00;23.20;99.90
8099;DHT22;4092;47.876;9.372;2022-10-30T13:47:38;23.20;99.90
8099;DHT22;4092;47.876;9.372;2022-10-30T13:50:21;23.20;99.90
8099;DHT22;4092;47.876;9.372;2022-10-30T13:52:54;23.20;99.90
8099;DHT22;4092;47.876;9.372;2022-10-30T13:55:25;23.20;99.90
8099;DHT22;4092;47.876;9.372;2022-10-30T13:57:59;23.20;99.90
8099;DHT22;4092;47.876;9.372;2022-10-30T14:00:42;23.20;99.90
8099;DHT22;4092;47.876;9.372;2022-10-30T14:03:26;23.10;99.90
8099;DHT22;4092;47.876;9.372;2022-10-30T14:06:02;23.00;99.90
8099;DHT22;4092;47.876;9.372;2022-10-30T14:08:39;22.90;99.90
8099;DHT22;4092;47.876;9.372;2022-10-30T14:11:11;22.80;99.90
8099;DHT22;4092;47.876;9.372;2022-10-30T14:13:52;22.60;99.90
8099;DHT22;4092;47.876;9.372;2022-10-30T14:16:40;22.30;99.90
8099;DHT22;4092;47.876;9.372;2022-10-30T14:19:08;22.20;99.90
8099;DHT22;4092;47.876;9.372;2022-10-30T14:21:42;22.00;99.90
8099;DHT22;4092;47.876;9.372;2022-10-30T14:24:15;21.80;99.90
8099;DHT22;4092;47.876;9.372;2022-10-30T14:26:46;21.70;99.90
8099;DHT22;4092;47.876;9.372;2022-10-30T14:29:45;21.60;99.90
8099;DHT22;4092;47.876;9.372;2022-10-30T14:32:45;21.50;99.90
8099;DHT22;4092;47.876;9.372;2022-10-30T14:35:34;21.20;99.90
8099;DHT22;4092;47.876;9.372;2022-10-30T14:38:23;21.10;99.90
8099;DHT22;4092;47.876;9.372;2022-10-30T14:41:14;21.00;99.90
8099;DHT22;4092;47.876;9.372;2022-10-30T14:43:51;21.00;99.90
8099;DHT22;4092;47.876;9.372;2022-10-30T14:46:27;20.90;99.90
8099;DHT22;4092;47.876;9.372;2022-10-30T14:49:08;21.00;99.90
8099;DHT22;4092;47.876;9.372;2022-10-30T14:51:43;21.20;99.90
8099;DHT22;4092;47.876;9.372;2022-10-30T14:54:23;21.40;99.90
8099;DHT22;4092;47.876;9.372;2022-10-30T14:56:51;21.60;99.90
8099;DHT22;4092;47.876;9.372;2022-10-30T14:59:24;21.60;99.90
8099;DHT22;4092;47.876;9.372;2022-10-30T15:02:02;21.60;99.90
8099;DHT22;4092;47.876;9.372;2022-10-30T15:04:46;21.50;99.90
8099;DHT22;4092;47.876;9.372;2022-10-30T15:07:25;21.30;99.90
8099;DHT22;4092;47.876;9.372;2022-10-30T15:10:05;21.30;99.90
8099;DHT22;4092;47.876;9.372;2022-10-30T15:12:55;21.20;99.90
8099;DHT22;4092;47.876;9.372;2022-10-30T15:15:24;20.90;99.90
8099;DHT22;4092;47.876;9.372;2022-10-30T15:17:54;20.60;99.90
8099;DHT22;4092;47.876;9.372;2022-10-30T15:20:23;20.40;99.90
8099;DHT22;4092;47.876;9.372;2022-10-30T15:22:53;20.20;99.90
8099;DHT22;4092;47.876;9.372;2022-10-30T15:25:27;19.90;99.90
8099;DHT22;4092;47.876;9.372;2022-10-30T15:27:57;19.60;99.90
8099;DHT22;4092;47.876;9.372;2022-10-30T15:30:30;19.50;99.90
8099;DHT22;4092;47.876;9.372;2022-10-30T15:32:59;19.30;99.90
8099;DHT22;4092;47.876;9.372;2022-10-30T15:35:29;19.10;99.90
8099;DHT22;4092;47.876;9.372;2022-10-30T15:38:01;18.90;99.90
8099;DHT22;4092;47.876;9.372;2022-10-30T15:40:32;18.70;99.90
8099;DHT22;4092;47.876;9.372;2022-10-30T15:43:02;18.50;99.90
8099;DHT22;4092;47.876;9.372;2022-10-30T15:45:33;18.30;99.90
8099;DHT22;4092;47.876;9.372;2022-10-30T15:48:05;18.20;99.90
8099;DHT22;4092;47.876;9.372;2022-10-30T15:50:42;18.00;99.90
8099;DHT22;4092;47.876;9.372;2022-10-30T15:53:17;17.80;99.90
8099;DHT22;4092;47.876;9.372;2022-10-30T15:55:47;17.70;99.90
8099;DHT22;4092;47.876;9.372;2022-10-30T15:58:21;17.60;99.90
8099;DHT22;4092;47.876;9.372;2022-10-30T16:00:55;17.40;99.90
8099;DHT22;4092;47.876;9.372;2022-10-30T16:03:27;17.30;99.90
8099;DHT22;4092;47.876;9.372;2022-10-30T16:06:11;17.20;99.90
8099;DHT22;4092;47.876;9.372;2022-10-30T16:08:45;17.00;99.90
8099;DHT22;4092;47.876;9.372;2022-10-30T16:11:14;16.90;99.90
8099;DHT22;4092;47.876;9.372;2022-10-30T16:13:42;16.90;99.90
8099;DHT22;4092;47.876;9.372;2022-10-30T16:16:15;16.70;99.90
8099;DHT22;4092;47.876;9.372;2022-10-30T16:18:44;16.60;99.90
8099;DHT22;4092;47.876;9.372;2022-10-30T16:21:16;16.50;99.90
8099;DHT22;4092;47.876;9.372;2022-10-30T16:23:48;16.40;99.90
8099;DHT22;4092;47.876;9.372;2022-10-30T16:26:27;16.20;99.90
8099;DHT22;4092;47.876;9.372;2022-10-30T16:28:59;16.20;99.90
8099;DHT22;4092;47.876;9.372;2022-10-30T16:31:31;16.00;99.90